Terminal Aerodrome Forecast
Issued by NWS Huntsville, AL

Home | Current Version | Previous Version | Text Only | Print | Product List | Glossary On
Versions: 1 2 3 4 5 6 7 8 9 10 11 12 13 14 15 16 17 18 19 20 21 22 23 24 25 26 27
000
FTUS44 KHUN 291721
TAFHSV
TAF
KHSV 291721Z 2918/3018 15009KT P6SM VCTS BKN035CB
     FM300000 13004KT P6SM OVC100
     FM300900 VRB04KT 5SM BR OVC100
     FM301300 13007KT P6SM VCSH BKN035=

USA.gov is the U.S. government's official web portal to all federal, state and local government web resources and services.